createdAt,value
2023-01-08T00:01:14.162Z,10.40
2023-01-08T00:03:41.839Z,10.40
2023-01-08T00:06:10.132Z,10.40
2023-01-08T00:08:37.674Z,10.40
2023-01-08T00:11:05.231Z,10.40
2023-01-08T00:13:32.802Z,10.40
2023-01-08T00:16:05.879Z,10.40
2023-01-08T00:18:33.288Z,10.40
2023-01-08T00:21:00.866Z,10.40
2023-01-08T00:23:28.392Z,10.40
2023-01-08T00:25:55.935Z,10.40
2023-01-08T00:28:23.538Z,10.50
2023-01-08T00:30:51.154Z,10.60
2023-01-08T00:33:18.607Z,10.50
2023-01-08T00:35:46.192Z,10.70
2023-01-08T00:38:13.742Z,10.60
2023-01-08T00:40:41.257Z,10.60
2023-01-08T00:43:08.815Z,10.50
2023-01-08T00:45:36.370Z,10.50
2023-01-08T00:48:03.886Z,10.60
2023-01-08T00:50:31.471Z,10.60
2023-01-08T00:52:59.008Z,10.50
2023-01-08T00:55:26.567Z,10.50
2023-01-08T00:57:54.144Z,10.40
2023-01-08T01:00:21.669Z,10.40
2023-01-08T01:02:49.212Z,10.50
2023-01-08T01:05:16.786Z,10.50
2023-01-08T01:07:44.334Z,10.50
2023-01-08T01:10:11.856Z,10.40
2023-01-08T01:12:39.436Z,10.40
2023-01-08T01:15:07.081Z,10.40
2023-01-08T01:17:34.617Z,10.30
2023-01-08T01:20:02.181Z,10.30
2023-01-08T01:22:29.728Z,10.30
2023-01-08T01:24:57.270Z,10.30
2023-01-08T01:27:25.209Z,10.20
2023-01-08T01:29:52.732Z,10.20
2023-01-08T01:32:20.269Z,10.20
2023-01-08T01:34:47.860Z,10.20
2023-01-08T01:37:15.396Z,10.20
2023-01-08T01:39:45.906Z,10.20
2023-01-08T01:42:16.206Z,10.20
2023-01-08T01:44:46.382Z,10.20
2023-01-08T01:47:22.786Z,10.20
2023-01-08T01:50:14.180Z,10.20
2023-01-08T01:52:41.742Z,10.20
2023-01-08T01:55:09.275Z,10.10
2023-01-08T01:57:36.804Z,10.20
2023-01-08T02:00:04.392Z,10.10
2023-01-08T02:02:31.990Z,10.20
2023-01-08T02:04:59.446Z,10.40
2023-01-08T02:07:48.078Z,10.60
2023-01-08T02:10:21.564Z,10.60
2023-01-08T02:12:49.106Z,10.50
2023-01-08T02:15:28.356Z,10.40
2023-01-08T02:18:04.419Z,10.30
2023-01-08T02:20:31.970Z,10.30
2023-01-08T02:23:04.968Z,10.20
2023-01-08T02:25:56.413Z,10.20
2023-01-08T02:28:24.016Z,10.40
2023-01-08T02:30:51.571Z,10.30
2023-01-08T02:33:19.088Z,10.30
2023-01-08T02:35:46.641Z,10.20
2023-01-08T02:38:14.166Z,10.20
2023-01-08T02:40:54.057Z,10.10
2023-01-08T02:43:21.593Z,10.10
2023-01-08T02:45:49.161Z,10.10
2023-01-08T02:48:28.518Z,10.10
2023-01-08T02:51:02.078Z,10.10
2023-01-08T02:53:29.603Z,10.00
2023-01-08T02:55:57.179Z,10.00
2023-01-08T02:58:24.718Z,10.00
2023-01-08T03:00:52.250Z,10.00
2023-01-08T03:03:22.497Z,10.20
2023-01-08T03:05:50.013Z,10.20
2023-01-08T03:08:17.541Z,10.20
2023-01-08T03:10:45.144Z,10.10
2023-01-08T03:13:12.670Z,10.00
2023-01-08T03:15:48.747Z,10.00
2023-01-08T03:18:19.208Z,10.00
2023-01-08T03:20:46.754Z,9.90
2023-01-08T03:23:14.272Z,9.90
2023-01-08T03:25:41.836Z,9.90
2023-01-08T03:28:09.348Z,9.90
2023-01-08T03:30:36.889Z,9.90
2023-01-08T03:33:04.438Z,9.90
2023-01-08T03:35:31.986Z,9.90
2023-01-08T03:38:05.445Z,9.90
2023-01-08T03:40:35.905Z,9.90
2023-01-08T03:43:03.439Z,9.90
2023-01-08T03:45:30.984Z,9.80
2023-01-08T03:47:58.567Z,9.90
2023-01-08T03:50:26.096Z,9.80
2023-01-08T03:52:53.607Z,9.80
2023-01-08T03:55:21.163Z,9.80
2023-01-08T03:57:48.688Z,9.80
2023-01-08T04:00:16.240Z,9.80
2023-01-08T04:02:43.864Z,9.80
2023-01-08T04:05:11.300Z,9.80
2023-01-08T04:07:38.837Z,9.80
2023-01-08T04:10:06.391Z,9.80
2023-01-08T04:12:33.919Z,9.80
2023-01-08T04:15:01.437Z,9.80
2023-01-08T04:17:30.135Z,9.80
2023-01-08T04:19:57.662Z,9.90
2023-01-08T04:22:25.186Z,9.80
2023-01-08T04:24:52.766Z,9.80
2023-01-08T04:27:20.309Z,10.00
2023-01-08T04:29:47.829Z,10.00
2023-01-08T04:32:15.384Z,10.00
2023-01-08T04:34:42.928Z,9.90
2023-01-08T04:37:10.478Z,9.90
2023-01-08T04:39:38.019Z,9.90
2023-01-08T04:42:05.562Z,10.10
2023-01-08T04:44:33.099Z,10.10
2023-01-08T04:47:00.649Z,10.10
2023-01-08T04:49:28.165Z,10.00
2023-01-08T04:51:55.706Z,10.00
2023-01-08T04:54:23.287Z,9.90
2023-01-08T04:56:50.822Z,9.80
2023-01-08T04:59:18.346Z,9.80
2023-01-08T05:01:46.270Z,9.80
2023-01-08T05:04:13.704Z,9.80
2023-01-08T05:06:41.247Z,9.70
2023-01-08T05:09:08.801Z,9.80
2023-01-08T05:11:36.333Z,9.70
2023-01-08T05:14:03.889Z,9.70
2023-01-08T05:16:31.443Z,9.70
2023-01-08T05:18:58.999Z,9.70
2023-01-08T05:21:26.512Z,9.70
2023-01-08T05:23:54.067Z,9.70
2023-01-08T05:26:21.594Z,9.70
2023-01-08T05:28:49.137Z,9.70
2023-01-08T05:31:16.833Z,9.70
2023-01-08T05:33:44.235Z,9.70
2023-01-08T05:36:11.758Z,9.70
2023-01-08T05:38:39.295Z,9.70
2023-01-08T05:41:06.842Z,9.70
2023-01-08T05:43:34.355Z,9.90
2023-01-08T05:46:01.985Z,9.90
2023-01-08T05:48:29.441Z,9.80
2023-01-08T05:50:56.969Z,9.80
2023-01-08T05:53:24.544Z,9.90
2023-01-08T05:55:52.081Z,9.90
2023-01-08T05:58:19.622Z,10.10
2023-01-08T06:00:47.178Z,10.30
2023-01-08T06:03:14.772Z,10.20
2023-01-08T06:05:42.217Z,10.10
2023-01-08T06:08:09.813Z,10.00
2023-01-08T06:10:40.030Z,10.00
2023-01-08T06:13:07.548Z,10.10
2023-01-08T06:15:36.046Z,10.10
2023-01-08T06:18:03.525Z,10.00
2023-01-08T06:20:31.097Z,10.00
2023-01-08T06:22:58.640Z,9.90
2023-01-08T06:25:26.158Z,10.10
2023-01-08T06:27:53.696Z,10.10
2023-01-08T06:30:21.257Z,10.00
2023-01-08T06:32:48.784Z,10.00
2023-01-08T06:35:16.306Z,9.90
2023-01-08T06:37:43.872Z,9.90
2023-01-08T06:40:11.395Z,9.80
2023-01-08T06:42:38.989Z,9.70
2023-01-08T06:45:06.661Z,9.70
2023-01-08T06:47:34.187Z,9.90
2023-01-08T06:50:01.746Z,9.90
2023-01-08T06:52:29.786Z,9.80
2023-01-08T06:54:57.297Z,9.70
2023-01-08T06:57:24.815Z,9.70
2023-01-08T06:59:52.392Z,9.70
2023-01-08T07:02:20.119Z,9.90
2023-01-08T07:04:47.449Z,9.90
2023-01-08T07:07:14.993Z,9.80
2023-01-08T07:09:42.527Z,9.70
2023-01-08T07:12:12.712Z,9.70
2023-01-08T07:14:40.311Z,9.70
2023-01-08T07:17:07.818Z,9.60
2023-01-08T07:19:35.344Z,9.60
2023-01-08T07:22:04.030Z,9.60
2023-01-08T07:24:31.566Z,9.60
2023-01-08T07:26:59.090Z,9.50
2023-01-08T07:29:27.168Z,9.70
2023-01-08T07:31:54.705Z,10.00
2023-01-08T07:34:22.233Z,9.90
2023-01-08T07:36:49.790Z,9.80
2023-01-08T07:39:17.325Z,9.80
2023-01-08T07:41:44.859Z,9.70
2023-01-08T07:44:12.413Z,9.70
2023-01-08T07:46:40.012Z,9.60
2023-01-08T07:49:07.431Z,9.60
2023-01-08T07:51:35.002Z,9.50
2023-01-08T07:54:02.523Z,9.50
2023-01-08T07:56:30.043Z,9.50
2023-01-08T07:58:57.611Z,9.50
2023-01-08T08:01:25.226Z,9.50
2023-01-08T08:03:52.660Z,9.40
2023-01-08T08:06:20.239Z,9.40
2023-01-08T08:08:47.749Z,9.40
2023-01-08T08:11:15.295Z,9.40
2023-01-08T08:13:42.860Z,9.40
2023-01-08T08:16:10.448Z,9.40
2023-01-08T08:18:37.906Z,9.60
2023-01-08T08:21:05.480Z,9.60
2023-01-08T08:23:35.207Z,9.60
2023-01-08T08:26:00.545Z,9.50
2023-01-08T08:28:28.119Z,9.50
2023-01-08T08:30:55.749Z,9.70
2023-01-08T08:33:23.166Z,9.70
2023-01-08T08:35:50.743Z,9.70
2023-01-08T08:38:18.265Z,9.60
2023-01-08T08:40:48.618Z,9.60
2023-01-08T08:43:16.193Z,9.60
2023-01-08T08:45:43.725Z,9.50
2023-01-08T08:48:11.257Z,9.70
2023-01-08T08:50:38.824Z,9.70
2023-01-08T08:53:06.361Z,9.70
2023-01-08T08:55:33.893Z,9.60
2023-01-08T08:58:08.566Z,9.60
2023-01-08T09:00:36.105Z,9.60
2023-01-08T09:03:03.722Z,9.60
2023-01-08T09:05:31.205Z,9.60
2023-01-08T09:07:58.728Z,9.60
2023-01-08T09:10:26.324Z,9.50
2023-01-08T09:12:54.092Z,9.70
2023-01-08T09:15:21.623Z,9.70
2023-01-08T09:17:58.096Z,9.70
2023-01-08T09:20:25.637Z,9.70
2023-01-08T09:22:53.180Z,9.60
2023-01-08T09:25:21.066Z,9.60
2023-01-08T09:27:48.517Z,9.80
2023-01-08T09:30:16.051Z,9.80
2023-01-08T09:32:43.659Z,9.80
2023-01-08T09:35:11.174Z,9.90
2023-01-08T09:37:38.698Z,9.90
2023-01-08T09:40:07.480Z,10.10
2023-01-08T09:42:35.014Z,10.00
2023-01-08T09:45:02.536Z,9.90
2023-01-08T09:47:30.147Z,9.90
2023-01-08T09:49:57.685Z,9.80
2023-01-08T09:52:25.202Z,9.80
2023-01-08T09:54:52.771Z,9.70
2023-01-08T09:57:20.302Z,9.70
2023-01-08T09:59:48.010Z,9.70
2023-01-08T10:02:18.558Z,9.70
2023-01-08T10:04:46.007Z,9.70
2023-01-08T10:07:16.060Z,9.70
2023-01-08T10:09:43.602Z,9.70
2023-01-08T10:12:11.148Z,9.80
2023-01-08T10:14:39.662Z,9.80
2023-01-08T10:17:37.063Z,9.80
2023-01-08T10:20:13.008Z,9.90
2023-01-08T10:22:40.579Z,10.20
2023-01-08T10:25:20.203Z,10.20
2023-01-08T10:27:47.734Z,10.10
2023-01-08T10:30:15.264Z,10.00
2023-01-08T10:32:43.041Z,10.00
2023-01-08T10:35:10.657Z,9.90
2023-01-08T10:37:38.189Z,9.90
2023-01-08T10:40:08.812Z,9.90
2023-01-08T10:42:36.389Z,9.90
2023-01-08T10:45:06.190Z,9.80
2023-01-08T10:47:32.368Z,9.80
2023-01-08T10:49:59.894Z,9.80
2023-01-08T10:52:30.097Z,9.80
2023-01-08T10:54:57.682Z,9.70
2023-01-08T10:57:28.005Z,9.70
2023-01-08T10:59:55.526Z,9.70
2023-01-08T11:02:26.966Z,9.70
2023-01-08T11:04:54.558Z,9.90
2023-01-08T11:07:22.068Z,9.90
2023-01-08T11:09:50.212Z,9.80
2023-01-08T11:12:26.496Z,9.80
2023-01-08T11:14:54.039Z,9.70
2023-01-08T11:17:21.694Z,10.00
2023-01-08T11:19:49.286Z,10.00
2023-01-08T11:22:19.548Z,9.90
2023-01-08T11:24:47.119Z,9.90
2023-01-08T11:27:23.840Z,9.80
2023-01-08T11:29:54.353Z,10.00
2023-01-08T11:32:24.572Z,10.00
2023-01-08T11:34:54.957Z,10.00
2023-01-08T11:37:25.193Z,10.00
2023-01-08T11:39:54.762Z,10.00
2023-01-08T11:42:39.857Z,9.90
2023-01-08T11:45:07.465Z,9.90
2023-01-08T11:47:37.693Z,9.80
2023-01-08T11:50:29.103Z,9.80
2023-01-08T11:53:11.440Z,9.70
2023-01-08T11:55:50.922Z,9.70
2023-01-08T11:58:26.953Z,9.70
2023-01-08T12:01:00.285Z,9.70
2023-01-08T12:03:30.613Z,9.70
2023-01-08T12:06:09.718Z,9.70
2023-01-08T12:08:58.085Z,9.70
2023-01-08T12:11:31.611Z,9.80
2023-01-08T12:14:10.496Z,9.80
2023-01-08T12:16:49.623Z,9.90
2023-01-08T12:19:31.912Z,9.90
2023-01-08T12:22:02.591Z,10.20
2023-01-08T12:24:30.176Z,10.20
2023-01-08T12:27:25.931Z,10.20
2023-01-08T12:30:07.127Z,10.10
2023-01-08T12:32:40.367Z,10.10
2023-01-08T12:35:34.722Z,10.10
2023-01-08T12:38:04.953Z,10.10
2023-01-08T12:40:41.265Z,10.10
2023-01-08T12:43:08.844Z,10.10
2023-01-08T12:45:36.489Z,10.10
2023-01-08T12:48:03.974Z,10.10
2023-01-08T12:50:40.095Z,10.10
2023-01-08T12:53:19.436Z,10.10
2023-01-08T12:56:14.872Z,10.10
2023-01-08T12:58:42.405Z,10.10
2023-01-08T13:01:12.440Z,10.10
2023-01-08T13:03:39.916Z,10.10
2023-01-08T13:06:07.452Z,10.10
2023-01-08T13:08:37.783Z,10.10
2023-01-08T13:11:05.383Z,10.10
2023-01-08T13:13:41.836Z,10.10
2023-01-08T13:16:12.299Z,10.10
2023-01-08T13:18:39.796Z,10.10
2023-01-08T13:21:07.371Z,10.20
2023-01-08T13:23:37.977Z,10.20
2023-01-08T13:26:05.497Z,10.30
2023-01-08T13:28:36.102Z,10.30
2023-01-08T13:31:21.634Z,10.30
2023-01-08T13:33:49.183Z,10.30
2023-01-08T13:36:16.666Z,10.50
2023-01-08T13:38:44.283Z,10.80
2023-01-08T13:41:26.579Z,11.00
2023-01-08T13:44:03.674Z,10.90
2023-01-08T13:46:31.210Z,10.80
2023-01-08T13:49:04.413Z,10.70
2023-01-08T13:51:43.414Z,10.60
2023-01-08T13:54:13.627Z,10.60
2023-01-08T13:56:41.160Z,10.50
2023-01-08T13:59:08.732Z,10.70
2023-01-08T14:01:36.427Z,10.80
2023-01-08T14:04:03.880Z,10.70
2023-01-08T14:06:31.474Z,10.70
2023-01-08T14:08:59.068Z,10.60
2023-01-08T14:11:41.391Z,10.50
2023-01-08T14:14:14.801Z,10.50
2023-01-08T14:16:42.450Z,10.50
2023-01-08T14:19:09.953Z,10.40
2023-01-08T14:21:37.509Z,10.40
2023-01-08T14:24:05.111Z,10.40
2023-01-08T14:26:35.796Z,10.40
2023-01-08T14:29:03.321Z,10.40
2023-01-08T14:31:30.917Z,10.50
2023-01-08T14:33:58.473Z,10.50
2023-01-08T14:36:25.994Z,10.70
2023-01-08T14:38:53.534Z,10.70
2023-01-08T14:41:34.053Z,10.70
2023-01-08T14:44:01.587Z,10.70
2023-01-08T14:46:29.132Z,10.70
2023-01-08T14:48:58.441Z,10.60
2023-01-08T14:51:28.882Z,10.60
2023-01-08T14:53:56.433Z,10.60
2023-01-08T14:56:26.643Z,10.60
2023-01-08T14:58:54.184Z,10.50
2023-01-08T15:01:21.810Z,10.50
2023-01-08T15:03:49.305Z,10.50
2023-01-08T15:06:28.688Z,10.40
2023-01-08T15:08:56.559Z,10.40
2023-01-08T15:11:24.114Z,10.40
2023-01-08T15:13:51.660Z,10.60
2023-01-08T15:16:29.185Z,10.50
2023-01-08T15:19:02.284Z,10.50
2023-01-08T15:21:39.653Z,10.40
2023-01-08T15:24:07.334Z,10.30
2023-01-08T15:26:36.107Z,10.30
2023-01-08T15:29:03.745Z,10.20
2023-01-08T15:35:01.858Z,10.20
2023-01-08T15:37:29.468Z,10.10
2023-01-08T15:39:57.113Z,10.10
2023-01-08T15:42:48.198Z,10.30
2023-01-08T15:45:21.388Z,10.30
2023-01-08T15:47:48.905Z,10.30
2023-01-08T15:50:16.477Z,10.50
2023-01-08T15:52:44.027Z,10.50
2023-01-08T15:55:16.983Z,10.40
2023-01-08T15:57:44.583Z,10.30
2023-01-08T16:00:17.708Z,10.20
2023-01-08T16:02:46.868Z,10.10
2023-01-08T16:05:12.807Z,10.10
2023-01-08T16:07:40.359Z,10.00
2023-01-08T16:10:07.923Z,10.00
2023-01-08T16:12:35.774Z,10.00
2023-01-08T16:15:03.314Z,9.90
2023-01-08T16:17:30.960Z,9.90
2023-01-08T16:19:58.533Z,9.80
2023-01-08T16:22:26.153Z,10.00
2023-01-08T16:24:53.687Z,10.00
2023-01-08T16:27:21.251Z,9.90
2023-01-08T16:29:48.784Z,9.80
2023-01-08T16:32:16.320Z,9.80
2023-01-08T16:34:43.894Z,9.70
2023-01-08T16:37:11.417Z,9.60
2023-01-08T16:39:38.963Z,9.80
2023-01-08T16:42:06.539Z,9.80
2023-01-08T16:44:34.067Z,9.80
2023-01-08T16:47:01.627Z,9.70
2023-01-08T16:49:29.190Z,9.60
2023-01-08T16:51:56.722Z,9.60
2023-01-08T16:54:24.306Z,9.60
2023-01-08T16:56:52.179Z,9.60
2023-01-08T16:59:23.664Z,9.60
2023-01-08T17:01:47.312Z,9.50
2023-01-08T17:04:14.884Z,9.50
2023-01-08T17:06:42.419Z,9.50
2023-01-08T17:09:11.630Z,9.50
2023-01-08T17:11:37.897Z,9.50
2023-01-08T17:14:05.435Z,9.50
2023-01-08T17:16:33.010Z,9.50
2023-01-08T17:19:00.563Z,9.50
2023-01-08T17:21:28.240Z,9.50
2023-01-08T17:23:55.769Z,9.50
2023-01-08T17:26:23.350Z,9.50
2023-01-08T17:28:50.895Z,9.50
2023-01-08T17:31:18.737Z,9.50
2023-01-08T17:33:46.281Z,9.50
2023-01-08T17:36:13.832Z,9.80
2023-01-08T17:38:41.436Z,9.80
2023-01-08T17:41:09.064Z,9.80
2023-01-08T17:43:36.594Z,9.80
2023-01-08T17:46:07.154Z,9.70
2023-01-08T17:48:34.633Z,9.70
2023-01-08T17:51:02.165Z,9.60
2023-01-08T17:53:29.696Z,9.80
2023-01-08T17:55:57.269Z,9.80
2023-01-08T17:58:24.795Z,9.70
2023-01-08T18:00:52.383Z,9.70
2023-01-08T18:03:19.904Z,9.60
2023-01-08T18:05:47.441Z,9.60
2023-01-08T18:08:14.984Z,9.60
2023-01-08T18:10:42.549Z,9.50
2023-01-08T18:13:10.081Z,9.50
2023-01-08T18:15:37.621Z,9.50
2023-01-08T18:18:05.189Z,9.50
2023-01-08T18:20:32.721Z,9.50
2023-01-08T18:23:00.258Z,9.50
2023-01-08T18:25:28.069Z,9.50
2023-01-08T18:27:55.617Z,9.50
2023-01-08T18:30:23.199Z,9.50
2023-01-08T18:32:50.744Z,9.50
2023-01-08T18:35:18.258Z,9.50
2023-01-08T18:37:45.775Z,9.50
2023-01-08T18:40:14.037Z,9.50
2023-01-08T18:42:41.594Z,9.50
2023-01-08T18:45:09.126Z,9.50
2023-01-08T18:47:36.714Z,9.50
2023-01-08T18:50:05.229Z,9.60
2023-01-08T18:52:32.793Z,9.70
2023-01-08T18:55:00.417Z,9.70
2023-01-08T18:57:27.931Z,9.60
2023-01-08T18:59:55.485Z,9.60
2023-01-08T19:02:26.130Z,9.60
2023-01-08T19:04:53.628Z,9.60
2023-01-08T19:07:21.145Z,9.50
2023-01-08T19:09:48.725Z,9.50
2023-01-08T19:12:16.280Z,9.50
2023-01-08T19:14:45.192Z,9.70
2023-01-08T19:17:12.275Z,9.70
2023-01-08T19:19:39.790Z,9.70
2023-01-08T19:22:07.315Z,9.80
2023-01-08T19:24:35.117Z,9.80
2023-01-08T19:27:02.639Z,9.70
2023-01-08T19:29:30.152Z,9.70
2023-01-08T19:31:57.791Z,9.60
2023-01-08T19:34:25.264Z,9.60
2023-01-08T19:36:52.797Z,9.50
2023-01-08T19:39:20.361Z,9.50
2023-01-08T19:42:05.544Z,9.50
2023-01-08T19:44:33.115Z,9.40
2023-01-08T19:47:00.659Z,9.40
2023-01-08T19:49:28.195Z,9.40
2023-01-08T19:51:55.775Z,9.30
2023-01-08T19:54:23.286Z,9.30
2023-01-08T19:56:50.822Z,9.30
2023-01-08T19:59:18.424Z,9.30
2023-01-08T20:01:46.026Z,9.50
2023-01-08T20:04:13.491Z,9.50
2023-01-08T20:06:41.340Z,9.40
2023-01-08T20:09:08.881Z,9.40
2023-01-08T20:11:36.411Z,9.40
2023-01-08T20:14:03.964Z,9.30
2023-01-08T20:16:31.539Z,9.20
2023-01-08T20:18:59.173Z,9.20
2023-01-08T20:21:26.710Z,9.10
2023-01-08T20:23:56.655Z,9.10
2023-01-08T20:26:24.186Z,9.00
2023-01-08T20:28:52.667Z,9.00
2023-01-08T20:31:20.264Z,9.00
2023-01-08T20:33:47.798Z,8.90
2023-01-08T20:36:21.062Z,8.90
2023-01-08T20:38:51.395Z,8.90
2023-01-08T20:41:18.919Z,8.80
2023-01-08T20:43:46.511Z,8.90
2023-01-08T20:46:14.057Z,8.80
2023-01-08T20:48:46.995Z,8.80
2023-01-08T20:51:09.422Z,8.80
2023-01-08T20:53:36.954Z,8.70
2023-01-08T20:56:04.491Z,8.70
2023-01-08T20:58:32.571Z,8.70
2023-01-08T21:01:08.935Z,8.60
2023-01-08T21:03:36.483Z,8.60
2023-01-08T21:06:09.946Z,8.60
2023-01-08T21:08:37.453Z,8.50
2023-01-08T21:11:05.301Z,8.50
2023-01-08T21:13:32.828Z,8.50
2023-01-08T21:16:00.363Z,8.40
2023-01-08T21:18:27.932Z,8.40
2023-01-08T21:21:01.149Z,8.40
2023-01-08T21:23:28.675Z,8.40
2023-01-08T21:25:59.030Z,8.40
2023-01-08T21:28:26.561Z,8.40
2023-01-08T21:30:54.132Z,8.30
2023-01-08T21:33:22.832Z,8.30
2023-01-08T21:35:50.355Z,8.50
2023-01-08T21:38:17.889Z,8.50
2023-01-08T21:40:45.426Z,8.50
2023-01-08T21:43:30.575Z,8.50
2023-01-08T21:45:58.149Z,8.50
2023-01-08T21:48:25.664Z,8.40
2023-01-08T21:50:53.206Z,8.40
2023-01-08T21:53:35.368Z,8.40
2023-01-08T21:56:02.778Z,8.40
2023-01-08T21:58:30.309Z,8.30
2023-01-08T22:00:57.911Z,8.50
2023-01-08T22:03:25.409Z,8.50
2023-01-08T22:05:58.779Z,8.40
2023-01-08T22:08:26.353Z,8.40
2023-01-08T22:10:53.889Z,8.30
2023-01-08T22:13:21.436Z,8.30
2023-01-08T22:15:49.009Z,8.20
2023-01-08T22:18:16.541Z,8.20
2023-01-08T22:20:44.095Z,8.10
2023-01-08T22:23:11.662Z,8.00
2023-01-08T22:25:41.912Z,8.00
2023-01-08T22:28:09.433Z,7.90
2023-01-08T22:30:37.012Z,7.90
2023-01-08T22:33:04.526Z,7.80
2023-01-08T22:35:32.050Z,7.80
2023-01-08T22:37:59.632Z,8.00
2023-01-08T22:40:27.165Z,8.00
2023-01-08T22:42:54.685Z,7.90
2023-01-08T22:45:22.299Z,7.90
2023-01-08T22:47:49.843Z,7.80
2023-01-08T22:50:17.373Z,7.80
2023-01-08T22:52:44.932Z,7.80
2023-01-08T22:55:12.449Z,7.70
2023-01-08T22:57:39.972Z,7.70
2023-01-08T23:00:07.694Z,7.70
2023-01-08T23:02:35.232Z,7.70
2023-01-08T23:05:02.755Z,7.70
2023-01-08T23:07:30.308Z,7.70
2023-01-08T23:09:57.833Z,7.60
2023-01-08T23:12:25.368Z,7.60
2023-01-08T23:14:53.190Z,7.60
2023-01-08T23:17:20.714Z,7.80
2023-01-08T23:19:48.239Z,7.80
2023-01-08T23:22:15.795Z,7.80
2023-01-08T23:24:43.337Z,7.80
2023-01-08T23:27:10.864Z,7.80
2023-01-08T23:29:38.460Z,7.80
2023-01-08T23:32:06.018Z,8.00
2023-01-08T23:34:33.545Z,8.00
2023-01-08T23:37:01.096Z,8.00
2023-01-08T23:39:28.614Z,8.00
2023-01-08T23:41:56.154Z,7.90
2023-01-08T23:44:23.967Z,7.90
2023-01-08T23:46:51.534Z,7.90
2023-01-08T23:49:19.037Z,7.90
2023-01-08T23:51:46.612Z,7.90
2023-01-08T23:54:14.146Z,7.90
2023-01-08T23:56:41.687Z,7.90
2023-01-08T23:59:09.258Z,7.90
